Lebanon, WI (53047)

5:10 AM CDT on March 26, 2017 (GMT -0500)
MAU014 | | Change Station

Elev 852 ft 43.23 °N, 88.73 °W | Updated 2 minutes ago

Fog
Fog
41.0 °F
Feels Like 41 °F
N
0.0
Wind Variable Wind from North
Gusts 4.0 mph

Today
High -- | Low -- °F
--% Chance of Precip.
Yesterday
High -- | Low -- °F
Precip. -- in
Pressure 29.90 in
Visibility 3.0 miles
Clouds Overcast 200 ft
Windchill 41 °F
Dew Point 32 °F
Humidity 71%
Rainfall 0.05 in
Snow Depth Not available.
6:46 AM 7:14 PM
Waning Crescent, 4% visible
METAR KRYV 260955Z AUTO 09009KT 3SM BR OVC002 04/04 A2990 RMK AO2 P0001 T00430043
Pressure 29.90 in
Visibility 3.0 miles
Clouds Overcast 200 ft
Windchill 41 °F
Dew Point 32 °F
Humidity 71%
Rainfall 0.05 in
Snow Depth Not available.
6:46 AM 7:14 PM
Waning Crescent, 4% visible
METAR KRYV 260955Z AUTO 09009KT 3SM BR OVC002 04/04 A2990 RMK AO2 P0001 T00430043

Get Severe Weather Alerts

Thanks for signing up!

Be on the lookout for a verification email in your inbox.

You'll start receiving the daily forecast at 8 AM.

×

10-Day Weather Forecast

Almanac

Astronomy

Mar. 26, 2017 Rise Set
Actual Time
Civil Twilight
Nautical Twilight
Astronomical Twilight
Moon
Length of Visible Light
Length of Day
Tomorrow will be .
, % of the Moon is Illuminated

Today's Extremes

State Highs State Lows

Community

WunderPhotos

Upload Photos

1,962,540 photos uploaded!

WunderBlog® & News

Nearby

Air Quality

  Air Quality AQ Index Pollutant
Not available.

Snow Depth

Station Depth Elevation

Earthquake Activity

City Distance Mag. Time & Date
Minimum magnitude displayed is 2.5.

Earthquake Activity

City Distance Mag. Time & Date
Minimum magnitude displayed is 2.5.

Coastal Water Temperatures

Place Temperature

Stations

Nearby Weather Stations

Station Location Temp. Windchill Dew Point Humidity Wind Precip. Elev Updated Type
                   

Watches & Warnings

There are currently no watches in effect.